sensor_id;sensor_type;location;lat;lon;timestamp;P1;durP1;ratioP1;P2;durP2;ratioP2
58874;SDS011;44652;49.040;12.126;2023-05-10T04:46:26;10.85;;;9.07;;
58874;SDS011;44652;49.040;12.126;2023-05-10T04:48:53;11.75;;;8.30;;
58874;SDS011;44652;49.040;12.126;2023-05-10T04:51:19;13.25;;;8.43;;
58874;SDS011;44652;49.040;12.126;2023-05-10T04:53:46;13.95;;;8.40;;
58874;SDS011;44652;49.040;12.126;2023-05-10T04:56:31;11.18;;;8.73;;
58874;SDS011;44652;49.040;12.126;2023-05-10T04:58:57;11.10;;;9.05;;
58874;SDS011;44652;49.040;12.126;2023-05-10T05:01:24;13.50;;;8.98;;
58874;SDS011;44652;49.040;12.126;2023-05-10T05:03:50;14.07;;;10.70;;
58874;SDS011;44652;49.040;12.126;2023-05-10T05:06:19;12.52;;;9.07;;
58874;SDS011;44652;49.040;12.126;2023-05-10T05:08:47;10.13;;;8.68;;
58874;SDS011;44652;49.040;12.126;2023-05-10T05:13:43;12.20;;;9.23;;
58874;SDS011;44652;49.040;12.126;2023-05-10T05:16:13;12.73;;;9.45;;
58874;SDS011;44652;49.040;12.126;2023-05-10T05:18:39;13.68;;;9.48;;
58874;SDS011;44652;49.040;12.126;2023-05-10T05:21:15;11.32;;;9.10;;
58874;SDS011;44652;49.040;12.126;2023-05-10T05:23:42;14.20;;;9.90;;
58874;SDS011;44652;49.040;12.126;2023-05-10T05:29:55;13.73;;;10.35;;
58874;SDS011;44652;49.040;12.126;2023-05-10T05:32:22;15.00;;;10.77;;
58874;SDS011;44652;49.040;12.126;2023-05-10T05:34:48;12.98;;;11.10;;
58874;SDS011;44652;49.040;12.126;2023-05-10T05:37:15;14.68;;;10.88;;
58874;SDS011;44652;49.040;12.126;2023-05-10T05:39:42;15.82;;;11.00;;
58874;SDS011;44652;49.040;12.126;2023-05-10T05:42:09;18.63;;;12.35;;
58874;SDS011;44652;49.040;12.126;2023-05-10T05:44:36;14.80;;;11.65;;
58874;SDS011;44652;49.040;12.126;2023-05-10T05:47:02;12.32;;;10.00;;
58874;SDS011;44652;49.040;12.126;2023-05-10T05:49:29;12.27;;;10.40;;
58874;SDS011;44652;49.040;12.126;2023-05-10T05:51:59;14.52;;;10.95;;
58874;SDS011;44652;49.040;12.126;2023-05-10T05:54:27;15.23;;;12.00;;
58874;SDS011;44652;49.040;12.126;2023-05-10T05:56:54;17.80;;;13.00;;
58874;SDS011;44652;49.040;12.126;2023-05-10T05:59:23;16.85;;;12.00;;
58874;SDS011;44652;49.040;12.126;2023-05-10T06:01:50;17.40;;;12.02;;
58874;SDS011;44652;49.040;12.126;2023-05-10T06:04:17;19.58;;;12.70;;
58874;SDS011;44652;49.040;12.126;2023-05-10T06:06:43;17.33;;;12.93;;
58874;SDS011;44652;49.040;12.126;2023-05-10T06:09:10;15.15;;;11.52;;
58874;SDS011;44652;49.040;12.126;2023-05-10T06:11:36;18.98;;;12.88;;
58874;SDS011;44652;49.040;12.126;2023-05-10T06:14:04;17.88;;;13.18;;
58874;SDS011;44652;49.040;12.126;2023-05-10T06:16:31;19.70;;;15.77;;
58874;SDS011;44652;49.040;12.126;2023-05-10T06:18:57;19.33;;;15.10;;
58874;SDS011;44652;49.040;12.126;2023-05-10T06:21:24;15.55;;;13.90;;
58874;SDS011;44652;49.040;12.126;2023-05-10T06:23:51;22.00;;;15.23;;
58874;SDS011;44652;49.040;12.126;2023-05-10T06:26:18;18.10;;;14.90;;
58874;SDS011;44652;49.040;12.126;2023-05-10T06:28:44;19.10;;;16.05;;
58874;SDS011;44652;49.040;12.126;2023-05-10T06:31:11;17.58;;;13.15;;
58874;SDS011;44652;49.040;12.126;2023-05-10T06:33:38;17.33;;;10.75;;
58874;SDS011;44652;49.040;12.126;2023-05-10T06:36:04;16.77;;;12.77;;
58874;SDS011;44652;49.040;12.126;2023-05-10T06:38:31;18.83;;;12.60;;
58874;SDS011;44652;49.040;12.126;2023-05-10T06:40:58;16.30;;;11.98;;
58874;SDS011;44652;49.040;12.126;2023-05-10T06:43:24;17.65;;;13.50;;
58874;SDS011;44652;49.040;12.126;2023-05-10T06:45:52;16.98;;;13.40;;
58874;SDS011;44652;49.040;12.126;2023-05-10T06:48:19;16.65;;;12.38;;
58874;SDS011;44652;49.040;12.126;2023-05-10T06:50:45;18.60;;;11.90;;
58874;SDS011;44652;49.040;12.126;2023-05-10T06:53:12;15.63;;;11.30;;
58874;SDS011;44652;49.040;12.126;2023-05-10T06:55:39;14.65;;;10.75;;
58874;SDS011;44652;49.040;12.126;2023-05-10T06:58:06;16.52;;;10.80;;
58874;SDS011;44652;49.040;12.126;2023-05-10T07:00:32;14.98;;;11.10;;
58874;SDS011;44652;49.040;12.126;2023-05-10T07:02:58;16.27;;;11.30;;
58874;SDS011;44652;49.040;12.126;2023-05-10T07:05:25;16.92;;;11.75;;
58874;SDS011;44652;49.040;12.126;2023-05-10T07:07:54;16.80;;;11.70;;
58874;SDS011;44652;49.040;12.126;2023-05-10T07:10:20;17.85;;;11.55;;
58874;SDS011;44652;49.040;12.126;2023-05-10T07:12:47;16.05;;;12.85;;
58874;SDS011;44652;49.040;12.126;2023-05-10T07:15:14;15.82;;;11.23;;
58874;SDS011;44652;49.040;12.126;2023-05-10T07:17:42;15.23;;;12.27;;
58874;SDS011;44652;49.040;12.126;2023-05-10T07:20:11;23.08;;;13.98;;
58874;SDS011;44652;49.040;12.126;2023-05-10T07:22:38;20.98;;;15.50;;
58874;SDS011;44652;49.040;12.126;2023-05-10T07:25:04;22.98;;;17.95;;
58874;SDS011;44652;49.040;12.126;2023-05-10T07:27:31;21.45;;;17.33;;
58874;SDS011;44652;49.040;12.126;2023-05-10T07:29:58;22.45;;;16.13;;
58874;SDS011;44652;49.040;12.126;2023-05-10T07:32:25;20.30;;;16.13;;
58874;SDS011;44652;49.040;12.126;2023-05-10T07:34:51;19.02;;;17.02;;
58874;SDS011;44652;49.040;12.126;2023-05-10T07:37:18;22.45;;;17.58;;
58874;SDS011;44652;49.040;12.126;2023-05-10T07:39:44;20.70;;;17.40;;
58874;SDS011;44652;49.040;12.126;2023-05-10T07:42:11;23.15;;;18.65;;
58874;SDS011;44652;49.040;12.126;2023-05-10T07:44:37;22.80;;;17.10;;
58874;SDS011;44652;49.040;12.126;2023-05-10T07:47:04;16.00;;;12.48;;
58874;SDS011;44652;49.040;12.126;2023-05-10T07:49:30;16.48;;;12.05;;
58874;SDS011;44652;49.040;12.126;2023-05-10T07:51:57;16.08;;;12.65;;
58874;SDS011;44652;49.040;12.126;2023-05-10T07:54:23;14.15;;;11.23;;
58874;SDS011;44652;49.040;12.126;2023-05-10T07:56:50;13.90;;;10.45;;
58874;SDS011;44652;49.040;12.126;2023-05-10T07:59:20;12.38;;;10.93;;
58874;SDS011;44652;49.040;12.126;2023-05-10T08:01:50;16.10;;;12.13;;
58874;SDS011;44652;49.040;12.126;2023-05-10T08:04:32;14.48;;;12.30;;
58874;SDS011;44652;49.040;12.126;2023-05-10T08:07:02;21.45;;;16.80;;
58874;SDS011;44652;49.040;12.126;2023-05-10T08:09:29;19.48;;;14.88;;
58874;SDS011;44652;49.040;12.126;2023-05-10T08:11:55;15.77;;;13.85;;
58874;SDS011;44652;49.040;12.126;2023-05-10T08:14:22;16.08;;;13.05;;
58874;SDS011;44652;49.040;12.126;2023-05-10T08:16:49;15.27;;;12.63;;
58874;SDS011;44652;49.040;12.126;2023-05-10T08:19:15;17.35;;;12.27;;
58874;SDS011;44652;49.040;12.126;2023-05-10T08:21:45;19.92;;;14.23;;
58874;SDS011;44652;49.040;12.126;2023-05-10T08:24:12;17.98;;;14.48;;
58874;SDS011;44652;49.040;12.126;2023-05-10T08:26:38;16.30;;;14.23;;
58874;SDS011;44652;49.040;12.126;2023-05-10T08:29:05;22.25;;;15.35;;
58874;SDS011;44652;49.040;12.126;2023-05-10T08:31:31;20.48;;;16.05;;
58874;SDS011;44652;49.040;12.126;2023-05-10T08:33:58;19.88;;;16.50;;
58874;SDS011;44652;49.040;12.126;2023-05-10T08:36:24;21.17;;;13.23;;
58874;SDS011;44652;49.040;12.126;2023-05-10T08:38:51;15.10;;;13.48;;
58874;SDS011;44652;49.040;12.126;2023-05-10T08:41:22;15.35;;;11.68;;
58874;SDS011;44652;49.040;12.126;2023-05-10T08:43:50;16.48;;;11.88;;
58874;SDS011;44652;49.040;12.126;2023-05-10T08:46:17;16.05;;;12.02;;
58874;SDS011;44652;49.040;12.126;2023-05-10T08:48:45;21.43;;;12.07;;
58874;SDS011;44652;49.040;12.126;2023-05-10T08:51:19;12.35;;;9.35;;
58874;SDS011;44652;49.040;12.126;2023-05-10T08:53:48;25.33;;;12.23;;
58874;SDS011;44652;49.040;12.126;2023-05-10T08:56:15;16.85;;;11.80;;
58874;SDS011;44652;49.040;12.126;2023-05-10T08:58:41;19.75;;;12.02;;
58874;SDS011;44652;49.040;12.126;2023-05-10T09:01:08;14.30;;;9.63;;
58874;SDS011;44652;49.040;12.126;2023-05-10T09:03:38;15.98;;;10.60;;
58874;SDS011;44652;49.040;12.126;2023-05-10T09:06:04;14.35;;;9.10;;
58874;SDS011;44652;49.040;12.126;2023-05-10T09:08:31;13.90;;;7.90;;
58874;SDS011;44652;49.040;12.126;2023-05-10T09:10:57;11.45;;;7.85;;
58874;SDS011;44652;49.040;12.126;2023-05-10T09:13:24;9.50;;;8.40;;
58874;SDS011;44652;49.040;12.126;2023-05-10T09:15:51;7.55;;;4.80;;
58874;SDS011;44652;49.040;12.126;2023-05-10T09:18:18;1.58;;;1.10;;
58874;SDS011;44652;49.040;12.126;2023-05-10T09:20:44;4.93;;;3.42;;
58874;SDS011;44652;49.040;12.126;2023-05-10T09:23:11;6.45;;;3.20;;
58874;SDS011;44652;49.040;12.126;2023-05-10T09:25:38;9.00;;;5.63;;
58874;SDS011;44652;49.040;12.126;2023-05-10T09:28:08;7.70;;;3.97;;
58874;SDS011;44652;49.040;12.126;2023-05-10T09:30:35;7.53;;;5.60;;
58874;SDS011;44652;49.040;12.126;2023-05-10T09:33:02;4.30;;;2.35;;
58874;SDS011;44652;49.040;12.126;2023-05-10T09:35:30;3.85;;;0.93;;
58874;SDS011;44652;49.040;12.126;2023-05-10T09:37:58;2.25;;;1.20;;
58874;SDS011;44652;49.040;12.126;2023-05-10T09:40:26;1.92;;;0.98;;
58874;SDS011;44652;49.040;12.126;2023-05-10T09:42:57;3.37;;;0.90;;
58874;SDS011;44652;49.040;12.126;2023-05-10T09:45:25;1.38;;;0.88;;
58874;SDS011;44652;49.040;12.126;2023-05-10T09:47:52;3.50;;;0.90;;
58874;SDS011;44652;49.040;12.126;2023-05-10T09:50:19;1.13;;;0.80;;
58874;SDS011;44652;49.040;12.126;2023-05-10T09:52:46;1.05;;;0.80;;
58874;SDS011;44652;49.040;12.126;2023-05-10T09:55:13;1.43;;;0.86;;
58874;SDS011;44652;49.040;12.126;2023-05-10T09:57:44;2.28;;;0.82;;
58874;SDS011;44652;49.040;12.126;2023-05-10T10:00:16;1.98;;;0.80;;
58874;SDS011;44652;49.040;12.126;2023-05-10T10:02:43;1.75;;;1.23;;
58874;SDS011;44652;49.040;12.126;2023-05-10T10:05:11;3.38;;;0.85;;
58874;SDS011;44652;49.040;12.126;2023-05-10T10:07:37;1.05;;;0.90;;
58874;SDS011;44652;49.040;12.126;2023-05-10T10:10:04;2.67;;;0.90;;
58874;SDS011;44652;49.040;12.126;2023-05-10T10:12:31;1.55;;;0.80;;
58874;SDS011;44652;49.040;12.126;2023-05-10T10:14:58;2.80;;;0.85;;
58874;SDS011;44652;49.040;12.126;2023-05-10T10:17:26;1.85;;;0.80;;
58874;SDS011;44652;49.040;12.126;2023-05-10T10:19:54;1.23;;;0.75;;
58874;SDS011;44652;49.040;12.126;2023-05-10T10:22:21;0.98;;;0.93;;
58874;SDS011;44652;49.040;12.126;2023-05-10T10:24:48;1.50;;;0.85;;
58874;SDS011;44652;49.040;12.126;2023-05-10T10:27:21;2.08;;;0.80;;
58874;SDS011;44652;49.040;12.126;2023-05-10T10:29:52;2.78;;;0.70;;
58874;SDS011;44652;49.040;12.126;2023-05-10T10:32:27;1.50;;;0.77;;
58874;SDS011;44652;49.040;12.126;2023-05-10T10:34:56;1.80;;;1.02;;
58874;SDS011;44652;49.040;12.126;2023-05-10T10:37:23;1.35;;;0.82;;
58874;SDS011;44652;49.040;12.126;2023-05-10T10:39:50;2.03;;;0.70;;
58874;SDS011;44652;49.040;12.126;2023-05-10T10:42:43;1.08;;;0.77;;
58874;SDS011;44652;49.040;12.126;2023-05-10T10:45:12;1.73;;;0.90;;
58874;SDS011;44652;49.040;12.126;2023-05-10T10:47:40;2.60;;;0.80;;
58874;SDS011;44652;49.040;12.126;2023-05-10T10:50:06;1.85;;;0.70;;
58874;SDS011;44652;49.040;12.126;2023-05-10T10:55:10;1.10;;;0.80;;
58874;SDS011;44652;49.040;12.126;2023-05-10T11:08:07;1.10;;;0.70;;
58874;SDS011;44652;49.040;12.126;2023-05-10T11:10:33;1.45;;;0.70;;
58874;SDS011;44652;49.040;12.126;2023-05-10T11:13:07;2.33;;;0.80;;
58874;SDS011;44652;49.040;12.126;2023-05-10T11:15:35;1.67;;;0.98;;
58874;SDS011;44652;49.040;12.126;2023-05-10T11:20:58;1.35;;;0.70;;
58874;SDS011;44652;49.040;12.126;2023-05-10T11:23:32;1.92;;;0.90;;
58874;SDS011;44652;49.040;12.126;2023-05-10T11:25:59;1.48;;;0.60;;
58874;SDS011;44652;49.040;12.126;2023-05-10T11:28:27;2.47;;;0.80;;
58874;SDS011;44652;49.040;12.126;2023-05-10T11:30:54;1.92;;;0.90;;
58874;SDS011;44652;49.040;12.126;2023-05-10T11:33:21;2.38;;;0.70;;
58874;SDS011;44652;49.040;12.126;2023-05-10T11:35:47;3.47;;;0.82;;
58874;SDS011;44652;49.040;12.126;2023-05-10T11:38:14;1.60;;;0.80;;
58874;SDS011;44652;49.040;12.126;2023-05-10T11:40:41;2.70;;;1.00;;
58874;SDS011;44652;49.040;12.126;2023-05-10T11:43:08;0.83;;;0.70;;
58874;SDS011;44652;49.040;12.126;2023-05-10T11:45:36;1.65;;;0.70;;
58874;SDS011;44652;49.040;12.126;2023-05-10T11:48:03;1.40;;;0.73;;
58874;SDS011;44652;49.040;12.126;2023-05-10T11:50:30;1.40;;;0.73;;
58874;SDS011;44652;49.040;12.126;2023-05-10T11:52:56;1.73;;;0.82;;
58874;SDS011;44652;49.040;12.126;2023-05-10T11:55:23;1.75;;;0.82;;
58874;SDS011;44652;49.040;12.126;2023-05-10T11:57:53;1.23;;;0.80;;
58874;SDS011;44652;49.040;12.126;2023-05-10T12:00:20;2.22;;;0.80;;
58874;SDS011;44652;49.040;12.126;2023-05-10T12:06:29;0.73;;;0.70;;
58874;SDS011;44652;49.040;12.126;2023-05-10T12:08:57;1.50;;;0.63;;
58874;SDS011;44652;49.040;12.126;2023-05-10T12:11:24;3.55;;;0.90;;
58874;SDS011;44652;49.040;12.126;2023-05-10T12:13:51;2.35;;;0.73;;
58874;SDS011;44652;49.040;12.126;2023-05-10T12:16:18;0.95;;;0.70;;
58874;SDS011;44652;49.040;12.126;2023-05-10T12:18:49;2.38;;;0.77;;
58874;SDS011;44652;49.040;12.126;2023-05-10T12:21:17;1.38;;;0.60;;
58874;SDS011;44652;49.040;12.126;2023-05-10T12:23:45;3.53;;;0.80;;
58874;SDS011;44652;49.040;12.126;2023-05-10T12:26:11;1.63;;;0.70;;
58874;SDS011;44652;49.040;12.126;2023-05-10T12:28:38;2.40;;;0.70;;
58874;SDS011;44652;49.040;12.126;2023-05-10T12:31:06;3.60;;;1.00;;
58874;SDS011;44652;49.040;12.126;2023-05-10T12:33:36;1.25;;;0.63;;
58874;SDS011;44652;49.040;12.126;2023-05-10T12:36:05;1.73;;;0.80;;
58874;SDS011;44652;49.040;12.126;2023-05-10T12:38:33;0.82;;;0.70;;
58874;SDS011;44652;49.040;12.126;2023-05-10T12:41:01;1.77;;;0.63;;
58874;SDS011;44652;49.040;12.126;2023-05-10T12:43:28;2.53;;;0.60;;
58874;SDS011;44652;49.040;12.126;2023-05-10T12:45:54;1.90;;;0.65;;
58874;SDS011;44652;49.040;12.126;2023-05-10T12:48:21;1.98;;;0.90;;
58874;SDS011;44652;49.040;12.126;2023-05-10T12:50:48;1.55;;;1.05;;
58874;SDS011;44652;49.040;12.126;2023-05-10T12:53:14;1.65;;;1.00;;
58874;SDS011;44652;49.040;12.126;2023-05-10T12:55:44;3.95;;;1.15;;
58874;SDS011;44652;49.040;12.126;2023-05-10T12:58:10;6.13;;;1.10;;
58874;SDS011;44652;49.040;12.126;2023-05-10T13:00:46;2.85;;;1.05;;
58874;SDS011;44652;49.040;12.126;2023-05-10T13:06:18;2.60;;;0.90;;
58874;SDS011;44652;49.040;12.126;2023-05-10T13:08:44;3.25;;;1.65;;
58874;SDS011;44652;49.040;12.126;2023-05-10T13:11:11;5.43;;;1.63;;
58874;SDS011;44652;49.040;12.126;2023-05-10T13:13:37;2.08;;;0.70;;
58874;SDS011;44652;49.040;12.126;2023-05-10T13:16:04;2.08;;;0.77;;
58874;SDS011;44652;49.040;12.126;2023-05-10T13:18:31;3.25;;;0.80;;
58874;SDS011;44652;49.040;12.126;2023-05-10T13:20:57;4.07;;;0.75;;
58874;SDS011;44652;49.040;12.126;2023-05-10T13:23:24;1.77;;;0.70;;
58874;SDS011;44652;49.040;12.126;2023-05-10T13:25:50;1.25;;;0.63;;
58874;SDS011;44652;49.040;12.126;2023-05-10T13:28:17;2.10;;;0.75;;
58874;SDS011;44652;49.040;12.126;2023-05-10T13:30:43;1.48;;;0.80;;
58874;SDS011;44652;49.040;12.126;2023-05-10T13:33:10;2.38;;;0.90;;
58874;SDS011;44652;49.040;12.126;2023-05-10T13:35:36;1.88;;;0.80;;
58874;SDS011;44652;49.040;12.126;2023-05-10T13:38:03;1.65;;;0.70;;
58874;SDS011;44652;49.040;12.126;2023-05-10T13:40:29;2.05;;;1.00;;
58874;SDS011;44652;49.040;12.126;2023-05-10T13:42:56;2.00;;;0.80;;
58874;SDS011;44652;49.040;12.126;2023-05-10T13:45:22;1.45;;;0.70;;
58874;SDS011;44652;49.040;12.126;2023-05-10T13:47:49;2.20;;;0.80;;
58874;SDS011;44652;49.040;12.126;2023-05-10T13:50:16;2.58;;;0.80;;
58874;SDS011;44652;49.040;12.126;2023-05-10T13:52:43;1.05;;;0.70;;
58874;SDS011;44652;49.040;12.126;2023-05-10T13:55:09;0.98;;;0.60;;
58874;SDS011;44652;49.040;12.126;2023-05-10T13:57:38;1.17;;;0.63;;
58874;SDS011;44652;49.040;12.126;2023-05-10T14:00:05;1.98;;;0.82;;
58874;SDS011;44652;49.040;12.126;2023-05-10T14:02:33;1.95;;;0.90;;
58874;SDS011;44652;49.040;12.126;2023-05-10T14:04:59;1.65;;;0.80;;
58874;SDS011;44652;49.040;12.126;2023-05-10T14:07:26;0.98;;;0.80;;
58874;SDS011;44652;49.040;12.126;2023-05-10T14:09:52;1.17;;;0.88;;
58874;SDS011;44652;49.040;12.126;2023-05-10T14:12:19;4.13;;;1.20;;
58874;SDS011;44652;49.040;12.126;2023-05-10T14:14:45;2.70;;;1.20;;
58874;SDS011;44652;49.040;12.126;2023-05-10T14:17:12;1.50;;;0.90;;
58874;SDS011;44652;49.040;12.126;2023-05-10T14:19:38;2.65;;;1.27;;
58874;SDS011;44652;49.040;12.126;2023-05-10T14:22:05;5.38;;;1.92;;
58874;SDS011;44652;49.040;12.126;2023-05-10T14:24:32;5.38;;;1.27;;
58874;SDS011;44652;49.040;12.126;2023-05-10T14:26:58;3.88;;;1.15;;
58874;SDS011;44652;49.040;12.126;2023-05-10T14:29:25;3.00;;;1.80;;
58874;SDS011;44652;49.040;12.126;2023-05-10T14:31:52;2.92;;;1.23;;
58874;SDS011;44652;49.040;12.126;2023-05-10T14:34:18;3.55;;;1.60;;
58874;SDS011;44652;49.040;12.126;2023-05-10T14:36:45;2.15;;;1.00;;
58874;SDS011;44652;49.040;12.126;2023-05-10T14:39:11;2.20;;;1.10;;
58874;SDS011;44652;49.040;12.126;2023-05-10T14:41:39;2.47;;;1.00;;
58874;SDS011;44652;49.040;12.126;2023-05-10T14:44:10;3.63;;;1.00;;
58874;SDS011;44652;49.040;12.126;2023-05-10T14:46:37;3.47;;;1.13;;
58874;SDS011;44652;49.040;12.126;2023-05-10T14:49:04;1.88;;;1.00;;
58874;SDS011;44652;49.040;12.126;2023-05-10T14:51:30;3.63;;;1.02;;
58874;SDS011;44652;49.040;12.126;2023-05-10T14:53:58;2.00;;;1.23;;
58874;SDS011;44652;49.040;12.126;2023-05-10T14:56:24;1.70;;;1.05;;
58874;SDS011;44652;49.040;12.126;2023-05-10T14:58:52;1.17;;;1.00;;
58874;SDS011;44652;49.040;12.126;2023-05-10T15:01:18;1.92;;;1.20;;
58874;SDS011;44652;49.040;12.126;2023-05-10T15:03:45;3.60;;;1.20;;
58874;SDS011;44652;49.040;12.126;2023-05-10T15:06:14;2.80;;;1.13;;
58874;SDS011;44652;49.040;12.126;2023-05-10T15:08:40;7.55;;;1.83;;
58874;SDS011;44652;49.040;12.126;2023-05-10T15:11:07;3.25;;;1.30;;
58874;SDS011;44652;49.040;12.126;2023-05-10T15:13:33;4.03;;;1.60;;
58874;SDS011;44652;49.040;12.126;2023-05-10T15:23:56;2.45;;;1.33;;
58874;SDS011;44652;49.040;12.126;2023-05-10T15:26:22;2.22;;;1.30;;
58874;SDS011;44652;49.040;12.126;2023-05-10T15:28:50;2.40;;;1.30;;
58874;SDS011;44652;49.040;12.126;2023-05-10T15:31:16;2.47;;;1.30;;
58874;SDS011;44652;49.040;12.126;2023-05-10T15:33:43;2.53;;;1.35;;
58874;SDS011;44652;49.040;12.126;2023-05-10T15:36:09;3.85;;;1.10;;
58874;SDS011;44652;49.040;12.126;2023-05-10T15:38:36;1.73;;;1.25;;
58874;SDS011;44652;49.040;12.126;2023-05-10T15:41:03;3.05;;;1.30;;
58874;SDS011;44652;49.040;12.126;2023-05-10T15:43:29;2.40;;;1.30;;
58874;SDS011;44652;49.040;12.126;2023-05-10T15:45:56;3.25;;;1.60;;
58874;SDS011;44652;49.040;12.126;2023-05-10T15:48:22;2.67;;;1.30;;
58874;SDS011;44652;49.040;12.126;2023-05-10T15:50:49;2.78;;;1.58;;
58874;SDS011;44652;49.040;12.126;2023-05-10T15:53:16;3.72;;;1.80;;
58874;SDS011;44652;49.040;12.126;2023-05-10T15:55:42;3.38;;;1.67;;
58874;SDS011;44652;49.040;12.126;2023-05-10T15:58:09;4.18;;;2.47;;
58874;SDS011;44652;49.040;12.126;2023-05-10T16:00:36;5.22;;;2.47;;
58874;SDS011;44652;49.040;12.126;2023-05-10T16:03:04;5.45;;;2.70;;
58874;SDS011;44652;49.040;12.126;2023-05-10T16:05:31;4.32;;;2.45;;
58874;SDS011;44652;49.040;12.126;2023-05-10T16:07:59;7.22;;;2.70;;
58874;SDS011;44652;49.040;12.126;2023-05-10T16:10:26;6.38;;;2.45;;
58874;SDS011;44652;49.040;12.126;2023-05-10T16:12:53;3.63;;;2.53;;
58874;SDS011;44652;49.040;12.126;2023-05-10T16:15:20;4.60;;;2.90;;
58874;SDS011;44652;49.040;12.126;2023-05-10T16:17:47;5.45;;;2.83;;
58874;SDS011;44652;49.040;12.126;2023-05-10T16:20:14;5.50;;;3.15;;
58874;SDS011;44652;49.040;12.126;2023-05-10T16:22:40;4.90;;;2.70;;
58874;SDS011;44652;49.040;12.126;2023-05-10T16:25:07;5.07;;;2.78;;
58874;SDS011;44652;49.040;12.126;2023-05-10T16:27:36;4.70;;;2.97;;
58874;SDS011;44652;49.040;12.126;2023-05-10T16:30:03;5.90;;;3.00;;
58874;SDS011;44652;49.040;12.126;2023-05-10T16:32:30;4.78;;;2.70;;
58874;SDS011;44652;49.040;12.126;2023-05-10T16:34:57;5.75;;;3.30;;
58874;SDS011;44652;49.040;12.126;2023-05-10T16:37:24;5.38;;;2.97;;
58874;SDS011;44652;49.040;12.126;2023-05-10T16:39:50;6.10;;;3.42;;
58874;SDS011;44652;49.040;12.126;2023-05-10T16:42:17;6.25;;;3.15;;
58874;SDS011;44652;49.040;12.126;2023-05-10T16:44:44;5.82;;;3.47;;
58874;SDS011;44652;49.040;12.126;2023-05-10T16:47:10;5.88;;;3.53;;
58874;SDS011;44652;49.040;12.126;2023-05-10T16:49:37;6.53;;;3.35;;
58874;SDS011;44652;49.040;12.126;2023-05-10T16:52:03;5.60;;;3.08;;
58874;SDS011;44652;49.040;12.126;2023-05-10T16:54:30;6.18;;;3.15;;
58874;SDS011;44652;49.040;12.126;2023-05-10T16:56:56;5.35;;;3.28;;
58874;SDS011;44652;49.040;12.126;2023-05-10T16:59:23;5.03;;;3.42;;
58874;SDS011;44652;49.040;12.126;2023-05-10T17:01:49;4.88;;;3.03;;
58874;SDS011;44652;49.040;12.126;2023-05-10T17:04:18;6.32;;;2.80;;
58874;SDS011;44652;49.040;12.126;2023-05-10T17:06:45;5.13;;;3.00;;
58874;SDS011;44652;49.040;12.126;2023-05-10T17:09:12;8.23;;;3.75;;
58874;SDS011;44652;49.040;12.126;2023-05-10T17:14:32;4.45;;;2.88;;
58874;SDS011;44652;49.040;12.126;2023-05-10T17:16:59;6.53;;;3.10;;
58874;SDS011;44652;49.040;12.126;2023-05-10T17:19:26;5.20;;;3.17;;
58874;SDS011;44652;49.040;12.126;2023-05-10T17:21:53;6.07;;;3.00;;
58874;SDS011;44652;49.040;12.126;2023-05-10T17:24:20;6.68;;;3.55;;
58874;SDS011;44652;49.040;12.126;2023-05-10T17:26:46;5.93;;;3.45;;
58874;SDS011;44652;49.040;12.126;2023-05-10T17:29:16;5.65;;;2.85;;
58874;SDS011;44652;49.040;12.126;2023-05-10T17:31:42;4.95;;;3.20;;
58874;SDS011;44652;49.040;12.126;2023-05-10T17:34:09;5.20;;;3.50;;
58874;SDS011;44652;49.040;12.126;2023-05-10T17:36:36;5.90;;;3.58;;
58874;SDS011;44652;49.040;12.126;2023-05-10T17:39:02;6.85;;;3.25;;
58874;SDS011;44652;49.040;12.126;2023-05-10T17:41:29;4.57;;;2.85;;
58874;SDS011;44652;49.040;12.126;2023-05-10T17:43:55;5.63;;;3.38;;
58874;SDS011;44652;49.040;12.126;2023-05-10T17:46:27;7.40;;;4.13;;
58874;SDS011;44652;49.040;12.126;2023-05-10T17:48:59;7.93;;;3.70;;
58874;SDS011;44652;49.040;12.126;2023-05-10T17:51:42;5.47;;;2.50;;
58874;SDS011;44652;49.040;12.126;2023-05-10T17:54:09;5.10;;;2.53;;
58874;SDS011;44652;49.040;12.126;2023-05-10T17:56:37;4.63;;;2.75;;
58874;SDS011;44652;49.040;12.126;2023-05-10T17:59:03;5.25;;;2.80;;
58874;SDS011;44652;49.040;12.126;2023-05-10T18:05:42;5.40;;;2.83;;
58874;SDS011;44652;49.040;12.126;2023-05-10T18:12:25;5.65;;;2.95;;
58874;SDS011;44652;49.040;12.126;2023-05-10T18:14:52;6.10;;;2.90;;
58874;SDS011;44652;49.040;12.126;2023-05-10T18:20:36;9.50;;;5.85;;
58874;SDS011;44652;49.040;12.126;2023-05-10T18:23:04;5.53;;;3.95;;
58874;SDS011;44652;49.040;12.126;2023-05-10T18:25:30;5.70;;;3.10;;
58874;SDS011;44652;49.040;12.126;2023-05-10T18:28:20;4.78;;;3.10;;
58874;SDS011;44652;49.040;12.126;2023-05-10T18:30:48;6.25;;;2.92;;
58874;SDS011;44652;49.040;12.126;2023-05-10T18:33:14;6.18;;;3.35;;
58874;SDS011;44652;49.040;12.126;2023-05-10T18:35:41;5.97;;;3.28;;
58874;SDS011;44652;49.040;12.126;2023-05-10T18:38:07;5.07;;;3.05;;
58874;SDS011;44652;49.040;12.126;2023-05-10T18:40:38;3.88;;;2.40;;
58874;SDS011;44652;49.040;12.126;2023-05-10T18:43:04;6.47;;;2.90;;
58874;SDS011;44652;49.040;12.126;2023-05-10T18:45:47;3.97;;;2.67;;
58874;SDS011;44652;49.040;12.126;2023-05-10T18:48:14;4.32;;;2.90;;
58874;SDS011;44652;49.040;12.126;2023-05-10T18:50:40;5.53;;;3.08;;
58874;SDS011;44652;49.040;12.126;2023-05-10T18:53:07;6.50;;;3.10;;
58874;SDS011;44652;49.040;12.126;2023-05-10T18:55:34;4.75;;;3.00;;
58874;SDS011;44652;49.040;12.126;2023-05-10T18:58:00;4.50;;;2.90;;
58874;SDS011;44652;49.040;12.126;2023-05-10T19:00:27;6.13;;;3.10;;
58874;SDS011;44652;49.040;12.126;2023-05-10T19:02:53;4.88;;;3.20;;
58874;SDS011;44652;49.040;12.126;2023-05-10T19:05:20;6.70;;;3.72;;
58874;SDS011;44652;49.040;12.126;2023-05-10T19:07:46;4.47;;;3.00;;
58874;SDS011;44652;49.040;12.126;2023-05-10T19:10:13;5.67;;;3.23;;
58874;SDS011;44652;49.040;12.126;2023-05-10T19:12:39;5.20;;;3.33;;
58874;SDS011;44652;49.040;12.126;2023-05-10T19:15:07;5.95;;;4.07;;
58874;SDS011;44652;49.040;12.126;2023-05-10T19:17:34;4.93;;;3.55;;
58874;SDS011;44652;49.040;12.126;2023-05-10T19:20:02;5.03;;;3.55;;
58874;SDS011;44652;49.040;12.126;2023-05-10T19:22:29;6.55;;;3.60;;
58874;SDS011;44652;49.040;12.126;2023-05-10T19:24:58;5.28;;;3.15;;
58874;SDS011;44652;49.040;12.126;2023-05-10T19:27:25;5.32;;;2.95;;
58874;SDS011;44652;49.040;12.126;2023-05-10T19:29:54;6.60;;;3.67;;
58874;SDS011;44652;49.040;12.126;2023-05-10T19:32:21;5.63;;;3.83;;
58874;SDS011;44652;49.040;12.126;2023-05-10T19:34:49;5.88;;;4.18;;
58874;SDS011;44652;49.040;12.126;2023-05-10T19:37:20;6.53;;;4.43;;
58874;SDS011;44652;49.040;12.126;2023-05-10T19:39:48;4.73;;;3.57;;
58874;SDS011;44652;49.040;12.126;2023-05-10T19:42:14;6.97;;;4.00;;
58874;SDS011;44652;49.040;12.126;2023-05-10T19:44:41;6.75;;;3.85;;
58874;SDS011;44652;49.040;12.126;2023-05-10T19:47:08;6.78;;;3.83;;
58874;SDS011;44652;49.040;12.126;2023-05-10T19:49:37;6.57;;;4.68;;
58874;SDS011;44652;49.040;12.126;2023-05-10T19:52:04;6.47;;;4.00;;
58874;SDS011;44652;49.040;12.126;2023-05-10T19:54:33;4.97;;;3.85;;
58874;SDS011;44652;49.040;12.126;2023-05-10T19:57:00;7.10;;;4.00;;
58874;SDS011;44652;49.040;12.126;2023-05-10T19:59:27;6.40;;;4.50;;
58874;SDS011;44652;49.040;12.126;2023-05-10T20:01:53;9.98;;;4.60;;
58874;SDS011;44652;49.040;12.126;2023-05-10T20:04:21;10.23;;;4.28;;
58874;SDS011;44652;49.040;12.126;2023-05-10T20:06:48;6.82;;;4.47;;